sensor_id;sensor_type;location;lat;lon;timestamp;pressure;altitude;pressure_sealevel;temperature;humidity
10646;BME280;5371;49.782;9.932;2023-03-21T00:02:26;99865.06;;;10.48;79.26
10646;BME280;5371;49.782;9.932;2023-03-21T00:04:53;99863.91;;;10.54;79.62
10646;BME280;5371;49.782;9.932;2023-03-21T00:07:20;99862.63;;;10.61;79.51
10646;BME280;5371;49.782;9.932;2023-03-21T00:09:47;99854.53;;;10.66;78.42
10646;BME280;5371;49.782;9.932;2023-03-21T00:12:14;99853.69;;;10.49;79.99
10646;BME280;5371;49.782;9.932;2023-03-21T00:14:43;99854.69;;;10.47;80.79
10646;BME280;5371;49.782;9.932;2023-03-21T00:17:10;99844.25;;;10.47;80.68
10646;BME280;5371;49.782;9.932;2023-03-21T00:19:37;99847.63;;;10.49;81.34
10646;BME280;5371;49.782;9.932;2023-03-21T00:22:05;99837.66;;;10.71;80.17
10646;BME280;5371;49.782;9.932;2023-03-21T00:24:33;99835.47;;;10.79;78.39
10646;BME280;5371;49.782;9.932;2023-03-21T00:27:00;99837.78;;;10.84;77.79
10646;BME280;5371;49.782;9.932;2023-03-21T00:29:27;99839.72;;;10.96;77.35
10646;BME280;5371;49.782;9.932;2023-03-21T00:31:55;99836.69;;;10.88;77.05
10646;BME280;5371;49.782;9.932;2023-03-21T00:34:23;99841.16;;;10.86;78.10
10646;BME280;5371;49.782;9.932;2023-03-21T00:36:50;99830.22;;;10.79;79.53
10646;BME280;5371;49.782;9.932;2023-03-21T00:39:17;99834.09;;;10.88;79.90
10646;BME280;5371;49.782;9.932;2023-03-21T00:41:44;99834.34;;;10.83;79.54
10646;BME280;5371;49.782;9.932;2023-03-21T00:44:12;99828.06;;;10.72;80.36
10646;BME280;5371;49.782;9.932;2023-03-21T00:46:40;99834.13;;;10.57;82.49
10646;BME280;5371;49.782;9.932;2023-03-21T00:49:09;99832.31;;;10.43;85.34
10646;BME280;5371;49.782;9.932;2023-03-21T00:51:36;99817.72;;;10.39;87.30
10646;BME280;5371;49.782;9.932;2023-03-21T00:54:04;99815.25;;;10.52;86.13
10646;BME280;5371;49.782;9.932;2023-03-21T00:56:32;99816.28;;;10.65;84.83
10646;BME280;5371;49.782;9.932;2023-03-21T00:58:59;99806.94;;;10.75;83.25
10646;BME280;5371;49.782;9.932;2023-03-21T01:01:26;99806.94;;;10.75;81.72
10646;BME280;5371;49.782;9.932;2023-03-21T01:03:56;99803.16;;;10.80;81.29
10646;BME280;5371;49.782;9.932;2023-03-21T01:06:35;99806.25;;;10.87;80.60
10646;BME280;5371;49.782;9.932;2023-03-21T01:09:05;99792.88;;;10.77;82.36
10646;BME280;5371;49.782;9.932;2023-03-21T01:11:35;99801.84;;;10.58;84.43
10646;BME280;5371;49.782;9.932;2023-03-21T01:14:02;99803.03;;;10.52;87.27
10646;BME280;5371;49.782;9.932;2023-03-21T01:16:29;99794.06;;;10.56;87.00
10646;BME280;5371;49.782;9.932;2023-03-21T01:18:57;99797.94;;;10.35;88.25
10646;BME280;5371;49.782;9.932;2023-03-21T01:21:24;99802.38;;;10.33;88.57
10646;BME280;5371;49.782;9.932;2023-03-21T01:23:52;99803.66;;;10.26;88.57
10646;BME280;5371;49.782;9.932;2023-03-21T01:26:19;99807.19;;;10.25;89.40
10646;BME280;5371;49.782;9.932;2023-03-21T01:28:46;99797.75;;;10.22;89.69
10646;BME280;5371;49.782;9.932;2023-03-21T01:31:15;99801.34;;;10.04;92.30
10646;BME280;5371;49.782;9.932;2023-03-21T01:33:43;99802.03;;;9.92;94.88
10646;BME280;5371;49.782;9.932;2023-03-21T01:36:14;99811.84;;;9.71;96.98
10646;BME280;5371;49.782;9.932;2023-03-21T01:38:42;99803.59;;;9.79;96.37
10646;BME280;5371;49.782;9.932;2023-03-21T01:41:19;99801.06;;;9.77;95.30
10646;BME280;5371;49.782;9.932;2023-03-21T01:43:47;99805.41;;;9.61;96.58
10646;BME280;5371;49.782;9.932;2023-03-21T01:49:19;99799.28;;;9.62;97.08
10646;BME280;5371;49.782;9.932;2023-03-21T01:51:55;99803.31;;;9.67;97.42
10646;BME280;5371;49.782;9.932;2023-03-21T01:54:25;99798.03;;;9.69;97.54
10646;BME280;5371;49.782;9.932;2023-03-21T01:56:57;99795.13;;;9.58;99.07
10646;BME280;5371;49.782;9.932;2023-03-21T01:59:29;99791.81;;;9.71;97.60
10646;BME280;5371;49.782;9.932;2023-03-21T02:02:33;99804.44;;;9.79;96.33
10646;BME280;5371;49.782;9.932;2023-03-21T02:05:17;99797.53;;;9.78;96.07
10646;BME280;5371;49.782;9.932;2023-03-21T02:07:46;99793.16;;;9.63;95.34
10646;BME280;5371;49.782;9.932;2023-03-21T02:10:16;99798.66;;;9.57;96.54
10646;BME280;5371;49.782;9.932;2023-03-21T02:12:48;99792.53;;;9.58;96.38
10646;BME280;5371;49.782;9.932;2023-03-21T02:15:16;99795.63;;;9.49;97.37
10646;BME280;5371;49.782;9.932;2023-03-21T02:18:08;99784.69;;;9.58;96.08
10646;BME280;5371;49.782;9.932;2023-03-21T02:21:08;99783.63;;;9.62;96.46
10646;BME280;5371;49.782;9.932;2023-03-21T02:24:06;99777.63;;;9.60;99.14
10646;BME280;5371;49.782;9.932;2023-03-21T02:27:02;99770.91;;;9.56;99.80
10646;BME280;5371;49.782;9.932;2023-03-21T02:33:18;99768.06;;;9.27;100.00
10646;BME280;5371;49.782;9.932;2023-03-21T02:36:00;99771.63;;;9.09;100.00
10646;BME280;5371;49.782;9.932;2023-03-21T02:38:35;99765.00;;;9.02;100.00
10646;BME280;5371;49.782;9.932;2023-03-21T02:41:07;99763.16;;;9.04;100.00
10646;BME280;5371;49.782;9.932;2023-03-21T02:43:40;99762.13;;;8.91;100.00
10646;BME280;5371;49.782;9.932;2023-03-21T02:46:13;99759.66;;;8.71;100.00
10646;BME280;5371;49.782;9.932;2023-03-21T02:48:46;99763.78;;;8.75;100.00
10646;BME280;5371;49.782;9.932;2023-03-21T02:51:21;99763.78;;;8.75;100.00
10646;BME280;5371;49.782;9.932;2023-03-21T02:53:52;99754.38;;;8.89;100.00
10646;BME280;5371;49.782;9.932;2023-03-21T02:56:22;99762.59;;;8.99;100.00
10646;BME280;5371;49.782;9.932;2023-03-21T02:58:53;99761.34;;;9.06;100.00
10646;BME280;5371;49.782;9.932;2023-03-21T03:01:20;99767.16;;;9.11;100.00
10646;BME280;5371;49.782;9.932;2023-03-21T03:03:51;99762.50;;;9.00;100.00
10646;BME280;5371;49.782;9.932;2023-03-21T03:06:20;99753.66;;;9.03;100.00
10646;BME280;5371;49.782;9.932;2023-03-21T03:09:12;99756.00;;;8.92;100.00
10646;BME280;5371;49.782;9.932;2023-03-21T03:11:44;99756.44;;;9.00;100.00
10646;BME280;5371;49.782;9.932;2023-03-21T03:14:24;99748.66;;;8.83;100.00
10646;BME280;5371;49.782;9.932;2023-03-21T03:17:06;99761.38;;;8.72;100.00
10646;BME280;5371;49.782;9.932;2023-03-21T03:19:44;99765.28;;;8.80;100.00
10646;BME280;5371;49.782;9.932;2023-03-21T03:22:22;99760.91;;;8.81;100.00
10646;BME280;5371;49.782;9.932;2023-03-21T03:24:56;99755.16;;;8.91;100.00
10646;BME280;5371;49.782;9.932;2023-03-21T03:27:28;99757.59;;;8.94;100.00
10646;BME280;5371;49.782;9.932;2023-03-21T03:30:02;99758.13;;;8.84;100.00
10646;BME280;5371;49.782;9.932;2023-03-21T03:32:36;99750.00;;;8.90;100.00
10646;BME280;5371;49.782;9.932;2023-03-21T03:35:10;99750.78;;;8.92;100.00
10646;BME280;5371;49.782;9.932;2023-03-21T03:37:40;99750.38;;;8.65;100.00
10646;BME280;5371;49.782;9.932;2023-03-21T03:40:12;99749.22;;;8.36;100.00
10646;BME280;5371;49.782;9.932;2023-03-21T03:42:49;99757.13;;;8.16;100.00
10646;BME280;5371;49.782;9.932;2023-03-21T03:45:27;99753.44;;;8.20;100.00
10646;BME280;5371;49.782;9.932;2023-03-21T03:48:03;99755.72;;;8.09;100.00
10646;BME280;5371;49.782;9.932;2023-03-21T03:50:37;99749.94;;;8.02;100.00
10646;BME280;5371;49.782;9.932;2023-03-21T03:53:15;99753.13;;;8.09;100.00
10646;BME280;5371;49.782;9.932;2023-03-21T03:55:45;99746.72;;;7.97;100.00
10646;BME280;5371;49.782;9.932;2023-03-21T03:58:16;99755.16;;;8.02;100.00
10646;BME280;5371;49.782;9.932;2023-03-21T04:00:43;99756.63;;;8.08;100.00
10646;BME280;5371;49.782;9.932;2023-03-21T04:03:10;99750.34;;;8.12;100.00
10646;BME280;5371;49.782;9.932;2023-03-21T04:05:37;99746.41;;;8.22;100.00
10646;BME280;5371;49.782;9.932;2023-03-21T04:08:05;99749.78;;;8.24;100.00
10646;BME280;5371;49.782;9.932;2023-03-21T04:10:39;99746.13;;;8.28;100.00
10646;BME280;5371;49.782;9.932;2023-03-21T04:13:07;99750.50;;;8.27;100.00
10646;BME280;5371;49.782;9.932;2023-03-21T04:15:55;99752.47;;;8.04;100.00
10646;BME280;5371;49.782;9.932;2023-03-21T04:18:22;99757.84;;;8.01;100.00
10646;BME280;5371;49.782;9.932;2023-03-21T04:20:49;99748.00;;;7.88;100.00
10646;BME280;5371;49.782;9.932;2023-03-21T04:23:18;99742.38;;;7.98;100.00
10646;BME280;5371;49.782;9.932;2023-03-21T04:25:47;99737.63;;;8.06;100.00
10646;BME280;5371;49.782;9.932;2023-03-21T04:28:16;99741.16;;;8.05;100.00
10646;BME280;5371;49.782;9.932;2023-03-21T04:30:51;99738.34;;;8.09;100.00
10646;BME280;5371;49.782;9.932;2023-03-21T04:33:20;99740.31;;;8.04;100.00
10646;BME280;5371;49.782;9.932;2023-03-21T04:35:54;99741.03;;;8.08;100.00
10646;BME280;5371;49.782;9.932;2023-03-21T04:38:23;99743.00;;;8.20;100.00
10646;BME280;5371;49.782;9.932;2023-03-21T04:40:51;99744.44;;;8.27;100.00
10646;BME280;5371;49.782;9.932;2023-03-21T04:43:22;99743.38;;;8.31;100.00
10646;BME280;5371;49.782;9.932;2023-03-21T04:45:49;99750.94;;;8.18;100.00
10646;BME280;5371;49.782;9.932;2023-03-21T04:48:17;99741.06;;;8.25;100.00
10646;BME280;5371;49.782;9.932;2023-03-21T04:50:44;99741.72;;;8.28;100.00
10646;BME280;5371;49.782;9.932;2023-03-21T04:53:11;99734.13;;;8.43;100.00
10646;BME280;5371;49.782;9.932;2023-03-21T04:55:38;99733.84;;;8.30;100.00
10646;BME280;5371;49.782;9.932;2023-03-21T04:58:05;99740.50;;;8.37;100.00
10646;BME280;5371;49.782;9.932;2023-03-21T05:00:34;99733.56;;;8.19;100.00
10646;BME280;5371;49.782;9.932;2023-03-21T05:03:04;99735.97;;;8.22;100.00
10646;BME280;5371;49.782;9.932;2023-03-21T05:05:34;99738.38;;;8.45;100.00
10646;BME280;5371;49.782;9.932;2023-03-21T05:08:01;99745.53;;;8.40;100.00
10646;BME280;5371;49.782;9.932;2023-03-21T05:10:28;99740.78;;;8.48;100.00
10646;BME280;5371;49.782;9.932;2023-03-21T05:12:55;99736.75;;;8.60;100.00
10646;BME280;5371;49.782;9.932;2023-03-21T05:15:22;99740.50;;;8.37;100.00
10646;BME280;5371;49.782;9.932;2023-03-21T05:17:50;99739.22;;;8.27;100.00
10646;BME280;5371;49.782;9.932;2023-03-21T05:20:17;99736.63;;;8.27;100.00
10646;BME280;5371;49.782;9.932;2023-03-21T05:22:44;99737.59;;;8.24;100.00
10646;BME280;5371;49.782;9.932;2023-03-21T05:25:16;99737.69;;;8.23;100.00
10646;BME280;5371;49.782;9.932;2023-03-21T05:28:08;99736.97;;;8.19;100.00
10646;BME280;5371;49.782;9.932;2023-03-21T05:30:35;99731.56;;;8.24;100.00
10646;BME280;5371;49.782;9.932;2023-03-21T05:33:04;99738.19;;;8.31;100.00
10646;BME280;5371;49.782;9.932;2023-03-21T05:35:31;99732.31;;;8.26;100.00
10646;BME280;5371;49.782;9.932;2023-03-21T05:38:01;99735.78;;;8.26;100.00
10646;BME280;5371;49.782;9.932;2023-03-21T05:40:33;99732.25;;;8.46;100.00
10646;BME280;5371;49.782;9.932;2023-03-21T05:43:01;99724.69;;;8.40;100.00
10646;BME280;5371;49.782;9.932;2023-03-21T05:45:28;99735.56;;;8.31;100.00
10646;BME280;5371;49.782;9.932;2023-03-21T05:47:56;99737.25;;;8.32;100.00
10646;BME280;5371;49.782;9.932;2023-03-21T05:50:28;99735.50;;;8.33;100.00
10646;BME280;5371;49.782;9.932;2023-03-21T05:53:12;99743.78;;;8.41;100.00
10646;BME280;5371;49.782;9.932;2023-03-21T05:55:40;99734.69;;;8.31;100.00
10646;BME280;5371;49.782;9.932;2023-03-21T05:58:12;99741.31;;;8.38;100.00
10646;BME280;5371;49.782;9.932;2023-03-21T06:00:43;99740.34;;;8.57;100.00
10646;BME280;5371;49.782;9.932;2023-03-21T06:03:19;99746.00;;;8.66;100.00
10646;BME280;5371;49.782;9.932;2023-03-21T06:06:09;99739.13;;;8.82;100.00
10646;BME280;5371;49.782;9.932;2023-03-21T06:08:41;99742.56;;;8.99;100.00
10646;BME280;5371;49.782;9.932;2023-03-21T06:11:18;99744.84;;;9.06;100.00
10646;BME280;5371;49.782;9.932;2023-03-21T06:13:47;99735.72;;;9.14;100.00
10646;BME280;5371;49.782;9.932;2023-03-21T06:16:14;99741.97;;;9.27;100.00
10646;BME280;5371;49.782;9.932;2023-03-21T06:18:42;99740.41;;;9.56;100.00
10646;BME280;5371;49.782;9.932;2023-03-21T06:21:37;99738.25;;;9.80;100.00
10646;BME280;5371;49.782;9.932;2023-03-21T06:24:06;99732.69;;;9.86;98.96
10646;BME280;5371;49.782;9.932;2023-03-21T06:26:33;99743.63;;;9.93;99.11
10646;BME280;5371;49.782;9.932;2023-03-21T06:29:00;99746.50;;;9.88;99.20
10646;BME280;5371;49.782;9.932;2023-03-21T06:31:27;99748.78;;;9.94;98.39
10646;BME280;5371;49.782;9.932;2023-03-21T06:34:00;99757.31;;;9.98;97.27
10646;BME280;5371;49.782;9.932;2023-03-21T06:36:27;99758.84;;;10.18;96.66
10646;BME280;5371;49.782;9.932;2023-03-21T06:38:55;99754.78;;;9.96;96.88
10646;BME280;5371;49.782;9.932;2023-03-21T06:41:23;99755.97;;;9.91;97.56
10646;BME280;5371;49.782;9.932;2023-03-21T06:43:57;99759.50;;;9.90;98.84
10646;BME280;5371;49.782;9.932;2023-03-21T06:46:25;99750.63;;;9.76;100.00
10646;BME280;5371;49.782;9.932;2023-03-21T06:48:52;99755.63;;;9.81;99.91
10646;BME280;5371;49.782;9.932;2023-03-21T06:51:19;99756.13;;;9.88;98.98
10646;BME280;5371;49.782;9.932;2023-03-21T06:54:03;99756.16;;;10.19;98.14
10646;BME280;5371;49.782;9.932;2023-03-21T06:56:46;99757.44;;;10.42;96.23
10646;BME280;5371;49.782;9.932;2023-03-21T06:59:19;99758.94;;;10.62;94.50
10646;BME280;5371;49.782;9.932;2023-03-21T07:01:54;99754.00;;;10.71;94.31
10646;BME280;5371;49.782;9.932;2023-03-21T07:04:21;99754.72;;;10.59;94.92
10646;BME280;5371;49.782;9.932;2023-03-21T07:06:49;99756.56;;;10.57;95.01
10646;BME280;5371;49.782;9.932;2023-03-21T07:09:21;99759.16;;;11.59;89.92
10646;BME280;5371;49.782;9.932;2023-03-21T07:11:50;99749.91;;;15.98;64.50
10646;BME280;5371;49.782;9.932;2023-03-21T07:14:22;99743.06;;;18.82;50.81
10646;BME280;5371;49.782;9.932;2023-03-21T07:16:50;99743.06;;;18.82;50.81
10646;BME280;5371;49.782;9.932;2023-03-21T07:19:17;99730.81;;;22.76;37.72
10646;BME280;5371;49.782;9.932;2023-03-21T07:21:44;99732.69;;;23.47;35.72
10646;BME280;5371;49.782;9.932;2023-03-21T07:24:11;99730.22;;;24.69;33.34
10646;BME280;5371;49.782;9.932;2023-03-21T07:26:39;99730.31;;;24.61;32.79
10646;BME280;5371;49.782;9.932;2023-03-21T07:29:06;99730.91;;;24.48;32.66
10646;BME280;5371;49.782;9.932;2023-03-21T07:31:33;99729.78;;;26.21;30.20
10646;BME280;5371;49.782;9.932;2023-03-21T07:34:01;99730.38;;;25.13;31.39
10646;BME280;5371;49.782;9.932;2023-03-21T07:36:28;99729.97;;;25.83;30.07
10646;BME280;5371;49.782;9.932;2023-03-21T07:38:55;99732.16;;;25.80;29.93
10646;BME280;5371;49.782;9.932;2023-03-21T07:41:23;99717.44;;;26.41;29.46
10646;BME280;5371;49.782;9.932;2023-03-21T07:43:51;99725.34;;;26.70;28.46
10646;BME280;5371;49.782;9.932;2023-03-21T07:46:18;99725.53;;;26.69;28.61
10646;BME280;5371;49.782;9.932;2023-03-21T07:48:47;59859.25;;;-142.70;100.00
10646;BME280;5371;49.782;9.932;2023-03-21T07:51:14;99721.97;;;25.02;30.95
10646;BME280;5371;49.782;9.932;2023-03-21T07:53:41;99722.09;;;26.96;28.22
10646;BME280;5371;49.782;9.932;2023-03-21T07:56:13;99724.41;;;26.35;28.70
10646;BME280;5371;49.782;9.932;2023-03-21T07:58:40;99731.88;;;23.46;32.51
10646;BME280;5371;49.782;9.932;2023-03-21T08:01:08;99719.75;;;21.80;36.34
10646;BME280;5371;49.782;9.932;2023-03-21T08:03:36;99726.28;;;20.57;38.38
10646;BME280;5371;49.782;9.932;2023-03-21T08:06:03;99724.97;;;19.70;40.80
10646;BME280;5371;49.782;9.932;2023-03-21T08:08:30;99726.78;;;17.88;46.04
10646;BME280;5371;49.782;9.932;2023-03-21T08:10:58;59859.25;;;-142.70;100.00
10646;BME280;5371;49.782;9.932;2023-03-21T08:13:25;59859.25;;;-142.70;100.00
10646;BME280;5371;49.782;9.932;2023-03-21T08:15:52;59859.25;;;-142.70;100.00
10646;BME280;5371;49.782;9.932;2023-03-21T08:18:20;99726.78;;;17.88;46.04
10646;BME280;5371;49.782;9.932;2023-03-21T08:20:50;99720.38;;;22.16;37.62
10646;BME280;5371;49.782;9.932;2023-03-21T08:23:17;99704.84;;;24.28;32.29
10646;BME280;5371;49.782;9.932;2023-03-21T08:25:45;99704.88;;;25.40;29.74
10646;BME280;5371;49.782;9.932;2023-03-21T08:28:12;99696.59;;;26.36;28.06
10646;BME280;5371;49.782;9.932;2023-03-21T08:30:39;99701.69;;;26.74;26.67
10646;BME280;5371;49.782;9.932;2023-03-21T08:33:06;99706.91;;;27.72;25.76
10646;BME280;5371;49.782;9.932;2023-03-21T08:35:34;99694.09;;;28.42;24.72
10646;BME280;5371;49.782;9.932;2023-03-21T08:38:02;99695.59;;;28.57;24.51
10646;BME280;5371;49.782;9.932;2023-03-21T08:40:29;99697.25;;;28.72;24.02
10646;BME280;5371;49.782;9.932;2023-03-21T08:42:56;99696.81;;;29.14;23.92
10646;BME280;5371;49.782;9.932;2023-03-21T08:45:24;99687.94;;;29.00;23.72
10646;BME280;5371;49.782;9.932;2023-03-21T08:47:52;99696.44;;;28.78;23.94
10646;BME280;5371;49.782;9.932;2023-03-21T08:50:20;99692.84;;;29.50;23.26
10646;BME280;5371;49.782;9.932;2023-03-21T08:52:49;99689.56;;;29.28;23.15
10646;BME280;5371;49.782;9.932;2023-03-21T08:55:17;99693.25;;;27.33;25.05
10646;BME280;5371;49.782;9.932;2023-03-21T08:57:45;99683.41;;;26.20;26.31
10646;BME280;5371;49.782;9.932;2023-03-21T09:00:14;99691.34;;;25.92;26.98
10646;BME280;5371;49.782;9.932;2023-03-21T09:02:43;99676.19;;;26.57;26.07
10646;BME280;5371;49.782;9.932;2023-03-21T09:05:10;99675.19;;;26.22;26.83
10646;BME280;5371;49.782;9.932;2023-03-21T09:07:38;99678.88;;;26.85;26.31
10646;BME280;5371;49.782;9.932;2023-03-21T09:10:09;99669.91;;;28.35;24.33
10646;BME280;5371;49.782;9.932;2023-03-21T09:12:36;99661.47;;;28.38;24.11
10646;BME280;5371;49.782;9.932;2023-03-21T09:15:04;99664.16;;;28.58;23.87
10646;BME280;5371;49.782;9.932;2023-03-21T09:17:31;99662.28;;;28.98;23.23
10646;BME280;5371;49.782;9.932;2023-03-21T09:19:59;99672.88;;;28.93;23.82
10646;BME280;5371;49.782;9.932;2023-03-21T09:22:35;99661.84;;;30.23;21.96
10646;BME280;5371;49.782;9.932;2023-03-21T09:25:03;99658.69;;;31.07;21.29
10646;BME280;5371;49.782;9.932;2023-03-21T09:27:37;99651.94;;;30.42;21.75
10646;BME280;5371;49.782;9.932;2023-03-21T09:30:05;99657.94;;;30.75;21.27
10646;BME280;5371;49.782;9.932;2023-03-21T09:32:34;99657.94;;;30.75;21.27
10646;BME280;5371;49.782;9.932;2023-03-21T09:35:02;99655.47;;;31.17;20.66
10646;BME280;5371;49.782;9.932;2023-03-21T09:37:31;59859.25;;;-142.70;100.00
10646;BME280;5371;49.782;9.932;2023-03-21T09:39:58;59859.25;;;-142.70;100.00
10646;BME280;5371;49.782;9.932;2023-03-21T09:42:32;59859.25;;;-142.70;100.00
10646;BME280;5371;49.782;9.932;2023-03-21T09:45:09;59859.25;;;-142.70;100.00
10646;BME280;5371;49.782;9.932;2023-03-21T09:47:40;59859.25;;;-142.70;100.00
10646;BME280;5371;49.782;9.932;2023-03-21T09:50:17;59859.25;;;-142.70;100.00
10646;BME280;5371;49.782;9.932;2023-03-21T09:52:46;59859.25;;;-142.70;100.00
10646;BME280;5371;49.782;9.932;2023-03-21T09:55:19;59859.25;;;-142.70;100.00
10646;BME280;5371;49.782;9.932;2023-03-21T09:57:49;99649.66;;;26.68;25.56
10646;BME280;5371;49.782;9.932;2023-03-21T10:00:26;99644.88;;;25.64;27.02
10646;BME280;5371;49.782;9.932;2023-03-21T10:02:58;99642.75;;;24.26;29.36
10646;BME280;5371;49.782;9.932;2023-03-21T10:05:28;99640.19;;;23.47;30.61
10646;BME280;5371;49.782;9.932;2023-03-21T10:08:00;59859.25;;;-142.70;100.00
10646;BME280;5371;49.782;9.932;2023-03-21T10:10:32;59859.25;;;-142.70;100.00
10646;BME280;5371;49.782;9.932;2023-03-21T10:13:00;59859.25;;;-142.70;100.00
10646;BME280;5371;49.782;9.932;2023-03-21T10:15:29;59859.25;;;-142.70;100.00
10646;BME280;5371;49.782;9.932;2023-03-21T10:18:00;59859.25;;;-142.70;100.00
10646;BME280;5371;49.782;9.932;2023-03-21T10:20:29;59859.25;;;-142.70;100.00
10646;BME280;5371;49.782;9.932;2023-03-21T10:22:59;59859.25;;;-142.70;100.00
10646;BME280;5371;49.782;9.932;2023-03-21T10:25:31;59859.25;;;-142.70;100.00
10646;BME280;5371;49.782;9.932;2023-03-21T10:27:59;59859.25;;;-142.70;100.00
10646;BME280;5371;49.782;9.932;2023-03-21T10:30:36;59859.25;;;-142.70;100.00
10646;BME280;5371;49.782;9.932;2023-03-21T10:33:06;59859.25;;;-142.70;100.00
10646;BME280;5371;49.782;9.932;2023-03-21T10:35:35;59859.25;;;-142.70;100.00
10646;BME280;5371;49.782;9.932;2023-03-21T10:38:04;59859.25;;;-142.70;100.00
10646;BME280;5371;49.782;9.932;2023-03-21T10:40:32;59859.25;;;-142.70;100.00
10646;BME280;5371;49.782;9.932;2023-03-21T10:43:15;59859.25;;;-142.70;100.00
10646;BME280;5371;49.782;9.932;2023-03-21T10:45:45;59859.25;;;-142.70;100.00
10646;BME280;5371;49.782;9.932;2023-03-21T10:48:13;59859.25;;;-142.70;100.00
10646;BME280;5371;49.782;9.932;2023-03-21T10:50:41;59859.25;;;-142.70;100.00
10646;BME280;5371;49.782;9.932;2023-03-21T10:53:14;59859.25;;;-142.70;100.00
10646;BME280;5371;49.782;9.932;2023-03-21T10:55:46;59859.25;;;-142.70;100.00
10646;BME280;5371;49.782;9.932;2023-03-21T10:58:16;59859.25;;;-142.70;100.00
10646;BME280;5371;49.782;9.932;2023-03-21T11:00:53;59859.25;;;-142.70;100.00
10646;BME280;5371;49.782;9.932;2023-03-21T11:03:25;59859.25;;;-142.70;100.00
10646;BME280;5371;49.782;9.932;2023-03-21T11:05:59;59859.25;;;-142.70;100.00
10646;BME280;5371;49.782;9.932;2023-03-21T11:08:27;59859.25;;;-142.70;100.00
10646;BME280;5371;49.782;9.932;2023-03-21T11:11:00;59859.25;;;-142.70;100.00
10646;BME280;5371;49.782;9.932;2023-03-21T11:13:33;59859.25;;;-142.70;100.00
10646;BME280;5371;49.782;9.932;2023-03-21T11:16:17;59859.25;;;-142.70;100.00
10646;BME280;5371;49.782;9.932;2023-03-21T11:18:49;59859.25;;;-142.70;100.00
10646;BME280;5371;49.782;9.932;2023-03-21T11:21:19;59859.25;;;-142.70;100.00
10646;BME280;5371;49.782;9.932;2023-03-21T11:23:53;59859.25;;;-142.70;100.00
10646;BME280;5371;49.782;9.932;2023-03-21T11:26:25;59859.25;;;-142.70;100.00
10646;BME280;5371;49.782;9.932;2023-03-21T11:28:53;99640.19;;;23.47;30.61
10646;BME280;5371;49.782;9.932;2023-03-21T11:31:22;99585.53;;;19.23;41.92
10646;BME280;5371;49.782;9.932;2023-03-21T11:34:05;99581.53;;;19.46;41.57
10646;BME280;5371;49.782;9.932;2023-03-21T11:36:34;99575.44;;;19.63;41.68
10646;BME280;5371;49.782;9.932;2023-03-21T11:39:22;99572.72;;;19.55;41.26
10646;BME280;5371;49.782;9.932;2023-03-21T11:41:53;99571.03;;;19.54;41.35
10646;BME280;5371;49.782;9.932;2023-03-21T11:44:29;99567.63;;;19.62;41.53
10646;BME280;5371;49.782;9.932;2023-03-21T11:47:00;99562.41;;;19.52;41.77
10646;BME280;5371;49.782;9.932;2023-03-21T11:49:27;99568.19;;;19.11;42.71
10646;BME280;5371;49.782;9.932;2023-03-21T11:52:20;99573.56;;;18.91;43.73
10646;BME280;5371;49.782;9.932;2023-03-21T11:55:07;99563.19;;;19.08;43.35
10646;BME280;5371;49.782;9.932;2023-03-21T11:57:41;99554.03;;;19.02;43.55
10646;BME280;5371;49.782;9.932;2023-03-21T12:00:14;99555.03;;;19.19;43.18
10646;BME280;5371;49.782;9.932;2023-03-21T12:05:44;99550.91;;;19.34;43.17
10646;BME280;5371;49.782;9.932;2023-03-21T12:08:25;99538.25;;;19.28;43.04
10646;BME280;5371;49.782;9.932;2023-03-21T12:11:04;99538.22;;;19.10;43.41
10646;BME280;5371;49.782;9.932;2023-03-21T12:13:43;99537.44;;;19.27;43.09
10646;BME280;5371;49.782;9.932;2023-03-21T12:16:24;99540.22;;;18.71;44.12
10646;BME280;5371;49.782;9.932;2023-03-21T12:19:02;99536.53;;;18.82;44.23
10646;BME280;5371;49.782;9.932;2023-03-21T12:21:38;99531.53;;;19.33;43.41
10646;BME280;5371;49.782;9.932;2023-03-21T12:24:14;99521.22;;;19.30;43.51
10646;BME280;5371;49.782;9.932;2023-03-21T12:26:51;99522.53;;;19.44;43.25
10646;BME280;5371;49.782;9.932;2023-03-21T12:29:32;99524.38;;;19.61;42.97
10646;BME280;5371;49.782;9.932;2023-03-21T12:32:20;99516.06;;;19.74;43.25
10646;BME280;5371;49.782;9.932;2023-03-21T12:35:03;99513.34;;;19.48;43.93
10646;BME280;5371;49.782;9.932;2023-03-21T12:37:37;99507.72;;;19.51;44.20
10646;BME280;5371;49.782;9.932;2023-03-21T12:40:16;99510.16;;;19.62;44.04
10646;BME280;5371;49.782;9.932;2023-03-21T12:43:01;99503.34;;;19.32;44.15
10646;BME280;5371;49.782;9.932;2023-03-21T12:45:33;99505.00;;;19.16;44.91
10646;BME280;5371;49.782;9.932;2023-03-21T12:48:10;99503.03;;;19.18;45.67
10646;BME280;5371;49.782;9.932;2023-03-21T12:50:41;99505.41;;;19.21;45.18
10646;BME280;5371;49.782;9.932;2023-03-21T12:53:26;99495.78;;;19.20;45.98
10646;BME280;5371;49.782;9.932;2023-03-21T12:55:58;99498.78;;;19.07;46.05
10646;BME280;5371;49.782;9.932;2023-03-21T12:58:30;99493.72;;;19.14;45.55
10646;BME280;5371;49.782;9.932;2023-03-21T13:01:00;99497.88;;;19.16;45.92
10646;BME280;5371;49.782;9.932;2023-03-21T13:03:31;99494.22;;;18.99;46.30
10646;BME280;5371;49.782;9.932;2023-03-21T13:06:03;99493.88;;;18.85;46.90
10646;BME280;5371;49.782;9.932;2023-03-21T13:08:35;99490.13;;;18.41;47.66
10646;BME280;5371;49.782;9.932;2023-03-21T13:11:04;99495.47;;;18.21;48.61
10646;BME280;5371;49.782;9.932;2023-03-21T13:13:35;99489.03;;;18.33;48.61
10646;BME280;5371;49.782;9.932;2023-03-21T13:16:08;99483.47;;;18.37;48.39
10646;BME280;5371;49.782;9.932;2023-03-21T13:18:51;99479.59;;;18.21;48.47
10646;BME280;5371;49.782;9.932;2023-03-21T13:21:30;99480.63;;;18.01;49.08
10646;BME280;5371;49.782;9.932;2023-03-21T13:24:02;99474.59;;;18.28;48.51
10646;BME280;5371;49.782;9.932;2023-03-21T13:26:37;99474.66;;;18.46;47.70
10646;BME280;5371;49.782;9.932;2023-03-21T13:29:21;99471.34;;;18.34;47.23
10646;BME280;5371;49.782;9.932;2023-03-21T13:31:51;99473.53;;;18.11;47.89
10646;BME280;5371;49.782;9.932;2023-03-21T13:34:23;99469.59;;;18.15;48.16
10646;BME280;5371;49.782;9.932;2023-03-21T13:36:55;99468.19;;;18.21;47.91
10646;BME280;5371;49.782;9.932;2023-03-21T13:39:25;99467.66;;;18.17;48.12
10646;BME280;5371;49.782;9.932;2023-03-21T13:42:02;99454.78;;;18.32;47.72